Erie, IL (61250)

7:16 AM CST on February 11, 2016 (GMT -0600)
JRITE Weather | | Change Station
CLOSE
Current Station
Personal Weather Station
Location: Erie, IL
Elevation: 591 ft
Nearby Weather Stations

Elev 591 ft 41.66 °N, 90.08 °W | Updated 6 seconds ago

Clear
Clear
5.9 °F
Feels Like 6 °F
N
0.0
Wind Variable Wind from North
Gusts 0.0 mph

Today
High -- | Low -- °F
--% Chance of Precip.
Yesterday
High -- | Low -- °F
Precip. -- in
Pressure 30.41 in
Visibility 10.0 miles
Clouds Clear
Windchill 6 °F
Dew Point -1 °F
Humidity 74%
Rainfall 0.00 in
Snow Depth Not available.
7:01 AM 5:28 PM
Waxing Crescent, 12% visible
METAR KCWI 111256Z AUTO 01007KT 10SM CLR M16/M18 A3032 RMK AO2 SLP297 T11611183 FZRANO TSNO
Pressure 30.41 in
Visibility 10.0 miles
Clouds Clear
Windchill 6 °F
Dew Point -1 °F
Humidity 74%
Rainfall 0.00 in
Snow Depth Not available.
7:01 AM 5:28 PM
Waxing Crescent, 12% visible
METAR KCWI 111256Z AUTO 01007KT 10SM CLR M16/M18 A3032 RMK AO2 SLP297 T11611183 FZRANO TSNO

10-Day Weather Forecast

Almanac

Astronomy

Feb. 11, 2016 Rise Set
Actual Time
Civil Twilight
Nautical Twilight
Astronomical Twilight
Moon
Length of Visible Light
Length of Day
Tomorrow will be .
, % of the Moon is Illuminated

Today's Extremes

State Highs State Lows

Community

WunderPhotos

Upload Photos

1,892,040 photos uploaded!

WunderBlog® & News

Nearby

Air Quality

  Air Quality AQ Index Pollutant
Not available.

Snow Depth

Station Depth Elevation

Earthquake Activity

City Distance Mag. Time & Date
Minimum magnitude displayed is 2.5.

Coastal Water Temperatures

Place Temperature

Stations

Nearby Weather Stations

Station Location Temp. Windchill Dew Point Humidity Wind Precip. Elev Updated Type
                   

Watches & Warnings

There are currently no watches in effect.